Time;durP1;ratioP1;P1;durP2;ratioP2;P2;SDS_P1;SDS_P2;PMS_P1;PMS_P2;Temp;Humidity;BMP_temperature;BMP_pressure;BME280_temperature;BME280_humidity;BME280_pressure;Samples;Min_cycle;Max_cycle;Signal;HPM_P1;HPM_P2
2024/01/21 06:02:46;;;;;;;28.52;14.60;;;-3.90;81.60;;;;;;3996496;29;20129;-80
2024/01/21 06:04:50;;;;;;;28.00;14.57;;;-4.00;82.00;;;;;;3993821;29;20050;-76
2024/01/21 06:06:52;;;;;;;29.45;14.68;;;-3.90;82.30;;;;;;3993664;29;20050;-79
2024/01/21 06:08:55;;;;;;;28.33;14.85;;;-3.90;82.10;;;;;;3994416;29;20050;-76
2024/01/21 06:10:57;;;;;;;28.58;14.70;;;-3.80;81.90;;;;;;3994849;29;20055;-80
2024/01/21 06:12:59;;;;;;;29.80;15.05;;;-3.80;82.30;;;;;;3994463;29;20050;-76
2024/01/21 06:15:01;;;;;;;28.58;14.65;;;-3.70;81.90;;;;;;3990766;29;20050;-75
2024/01/21 06:17:02;;;;;;;24.98;13.82;;;-3.70;81.80;;;;;;3994125;29;20054;-77
2024/01/21 06:19:06;;;;;;;29.60;14.73;;;-3.70;81.50;;;;;;3999440;29;20153;-79
2024/01/21 06:21:08;;;;;;;31.90;15.80;;;-3.70;80.80;;;;;;4000372;29;20064;-75
2024/01/21 06:23:11;;;;;;;27.63;14.45;;;-3.60;80.60;;;;;;4003058;29;20050;-76
2024/01/21 06:25:13;;;;;;;30.48;15.88;;;-3.60;80.50;;;;;;4003143;29;20120;-77
2024/01/21 06:27:14;;;;;;;26.73;14.50;;;-3.60;80.70;;;;;;4003951;29;20042;-77
2024/01/21 06:29:15;;;;;;;30.63;15.45;;;-3.60;80.50;;;;;;4003835;29;20062;-79
2024/01/21 06:31:17;;;;;;;29.90;15.43;;;-3.60;80.30;;;;;;4002984;29;20054;-76
2024/01/21 06:33:20;;;;;;;29.42;15.10;;;-3.60;80.50;;;;;;4003966;29;20108;-77
2024/01/21 06:35:23;;;;;;;28.92;15.20;;;-3.60;80.50;;;;;;4007074;29;20283;-78
2024/01/21 06:37:25;;;;;;;31.58;15.93;;;-3.80;79.60;;;;;;4007138;29;20065;-78
2024/01/21 06:39:27;;;;;;;28.20;14.90;;;-3.90;80.70;;;;;;4004268;29;20488;-77
2024/01/21 06:41:29;;;;;;;32.22;15.25;;;-3.80;81.10;;;;;;4006764;29;20074;-79
2024/01/21 06:43:31;;;;;;;28.48;15.45;;;-3.80;80.70;;;;;;4010382;29;20046;-79
2024/01/21 06:45:33;;;;;;;26.85;14.25;;;-3.80;80.50;;;;;;4011888;29;20062;-76
2024/01/21 06:47:34;;;;;;;28.15;14.55;;;-3.80;80.60;;;;;;3995852;29;20055;-78
2024/01/21 06:49:36;;;;;;;26.15;13.38;;;-3.80;80.70;;;;;;3995864;29;20046;-77
2024/01/21 06:51:46;;;;;;;23.83;12.10;;;-3.90;81.30;;;;;;3996623;29;20381;-77
2024/01/21 06:53:48;;;;;;;23.33;11.68;;;-3.80;81.90;;;;;;4003400;29;20157;-78
2024/01/21 06:55:50;;;;;;;19.85;10.80;;;-3.80;82.10;;;;;;4009939;29;20057;-77
2024/01/21 06:57:52;;;;;;;25.40;12.63;;;-3.70;82.10;;;;;;4010007;29;20096;-78
2024/01/21 06:59:55;;;;;;;23.90;12.10;;;-3.70;82.60;;;;;;4007184;29;20050;-77
2024/01/21 07:01:57;;;;;;;22.45;11.43;;;-3.70;81.70;;;;;;4013622;29;20049;-78
2024/01/21 07:03:57;;;;;;;20.88;11.35;;;-3.70;81.70;;;;;;4019692;29;20050;-76
2024/01/21 07:05:59;;;;;;;19.38;10.82;;;-3.70;81.70;;;;;;4030056;29;20060;-77
2024/01/21 07:08:03;;;;;;;21.90;11.35;;;-3.60;81.80;;;;;;4022286;29;20079;-75
2024/01/21 07:10:06;;;;;;;21.63;10.30;;;-3.60;81.60;;;;;;4028444;29;20117;-78
2024/01/21 07:12:08;;;;;;;22.95;11.40;;;-3.50;81.70;;;;;;4034494;29;20053;-81
2024/01/21 07:14:10;;;;;;;20.90;11.05;;;-3.50;81.70;;;;;;4026656;29;20106;-78
2024/01/21 07:16:12;;;;;;;20.63;10.65;;;-3.40;81.50;;;;;;4018584;29;20115;-77
2024/01/21 07:18:14;;;;;;;23.35;11.15;;;-3.40;81.10;;;;;;4012096;29;20046;-75
2024/01/21 07:20:16;;;;;;;20.23;11.32;;;-3.40;80.60;;;;;;4017453;29;20079;-76
2024/01/21 07:22:18;;;;;;;19.00;10.02;;;-3.40;80.80;;;;;;4018309;29;20058;-74
2024/01/21 07:24:21;;;;;;;21.05;10.98;;;-3.40;80.70;;;;;;4018455;29;20083;-75
2024/01/21 07:26:23;;;;;;;20.10;10.93;;;-3.40;80.70;;;;;;4013636;29;20054;-76
2024/01/21 07:28:25;;;;;;;26.60;12.90;;;-3.30;80.80;;;;;;4012251;29;20092;-77
2024/01/21 07:30:27;;;;;;;35.60;17.75;;;-3.30;80.70;;;;;;4009629;29;20106;-77
2024/01/21 07:32:29;;;;;;;25.17;12.57;;;-3.30;80.60;;;;;;4009654;29;20083;-75
2024/01/21 07:34:30;;;;;;;27.00;12.73;;;-3.30;80.60;;;;;;4016381;29;20074;-75
2024/01/21 07:36:33;;;;;;;28.45;14.90;;;-3.20;80.60;;;;;;4016230;29;20499;-77
2024/01/21 07:38:35;;;;;;;42.25;20.05;;;-3.20;80.50;;;;;;4013851;29;20050;-77
2024/01/21 07:40:38;;;;;;;32.58;15.68;;;-3.20;80.40;;;;;;4010417;29;20058;-78
2024/01/21 07:42:40;;;;;;;39.83;17.73;;;-3.20;80.30;;;;;;4012335;29;20076;-75
2024/01/21 07:44:42;;;;;;;29.20;15.13;;;-3.20;80.30;;;;;;4010470;29;20057;-79
2024/01/21 07:46:44;;;;;;;23.45;11.98;;;-3.20;80.60;;;;;;4007783;29;20061;-77
2024/01/21 07:48:46;;;;;;;19.80;10.27;;;-3.20;81.00;;;;;;4007383;29;20061;-79
2024/01/21 07:50:48;;;;;;;20.50;10.93;;;-3.20;81.00;;;;;;4006813;29;20106;-76
2024/01/21 07:52:50;;;;;;;22.50;11.30;;;-3.10;80.90;;;;;;4007391;29;20476;-79
2024/01/21 07:54:52;;;;;;;20.73;10.88;;;-3.00;80.70;;;;;;4007941;29;20049;-79
2024/01/21 07:56:55;;;;;;;22.52;10.82;;;-3.10;80.70;;;;;;4007148;29;20570;-80
2024/01/21 07:58:57;;;;;;;20.67;10.40;;;-3.00;80.50;;;;;;4007910;29;20511;-78
2024/01/21 08:00:58;;;;;;;21.05;10.48;;;-3.00;80.30;;;;;;4007616;29;20074;-79
2024/01/21 08:03:00;;;;;;;18.98;10.35;;;-2.90;80.20;;;;;;4008083;29;20150;-78
2024/01/21 08:05:02;;;;;;;20.05;10.43;;;-2.80;80.00;;;;;;4022585;29;20049;-77
2024/01/21 08:07:05;;;;;;;21.75;11.40;;;-2.70;79.80;;;;;;4018916;29;20170;-78
2024/01/21 08:09:07;;;;;;;18.92;10.75;;;-2.70;79.50;;;;;;4010351;29;20054;-80
2024/01/21 08:11:08;;;;;;;21.80;10.98;;;-2.60;79.40;;;;;;4010101;29;20559;-78
2024/01/21 08:13:12;;;;;;;22.33;10.93;;;-2.50;79.10;;;;;;4009439;29;20054;-74
2024/01/21 08:15:14;;;;;;;20.05;10.55;;;-2.50;78.80;;;;;;4010177;29;20062;-75
2024/01/21 08:17:16;;;;;;;21.63;11.60;;;-2.40;78.60;;;;;;4012113;29;20412;-75
2024/01/21 08:19:19;;;;;;;23.75;12.82;;;-2.40;78.30;;;;;;4012192;29;20048;-75
2024/01/21 08:21:20;;;;;;;32.72;15.52;;;-2.30;78.00;;;;;;4011718;29;20058;-75
2024/01/21 08:23:24;;;;;;;29.85;16.45;;;-2.30;78.00;;;;;;4009817;29;20042;-74
2024/01/21 08:25:26;;;;;;;33.08;16.42;;;-2.30;77.80;;;;;;4010194;29;20050;-77
2024/01/21 08:27:31;;;;;;;27.40;15.30;;;-2.30;77.90;;;;;;4007041;29;20079;-77
2024/01/21 08:29:36;;;;;;;23.52;12.60;;;-2.30;78.10;;;;;;4015322;29;20049;-78
2024/01/21 08:31:43;;;;;;;20.08;11.70;;;-2.40;79.20;;;;;;4009979;29;20100;-76
2024/01/21 08:33:45;;;;;;;22.30;12.35;;;-2.40;79.90;;;;;;4004350;29;20452;-76
2024/01/21 08:35:47;;;;;;;19.52;11.90;;;-2.40;79.30;;;;;;4023665;29;20050;-79
2024/01/21 08:37:49;;;;;;;24.38;11.85;;;-2.30;79.10;;;;;;4009846;29;20053;-80
2024/01/21 08:39:50;;;;;;;22.30;12.20;;;-2.30;78.30;;;;;;4011045;29;20057;-77
2024/01/21 08:41:52;;;;;;;21.33;11.98;;;-2.30;78.80;;;;;;4011236;29;20090;-77
2024/01/21 08:43:56;;;;;;;24.52;13.30;;;-2.30;79.30;;;;;;4016200;29;20053;-80
2024/01/21 08:45:59;;;;;;;24.30;13.32;;;-2.30;79.60;;;;;;4008673;29;20152;-77
2024/01/21 08:48:02;;;;;;;24.25;13.60;;;-2.40;79.90;;;;;;4010895;29;20065;-77
2024/01/21 08:50:04;;;;;;;26.42;14.07;;;-2.40;80.40;;;;;;4005971;29;20146;-80
2024/01/21 08:52:06;;;;;;;26.38;13.95;;;-2.30;80.50;;;;;;4010071;29;20050;-80
2024/01/21 08:54:08;;;;;;;24.60;13.80;;;-2.30;80.10;;;;;;4010223;29;20190;-76
2024/01/21 08:56:10;;;;;;;25.27;13.65;;;-2.20;80.10;;;;;;4009572;29;20054;-77
2024/01/21 08:58:12;;;;;;;22.33;12.98;;;-2.10;80.00;;;;;;4010020;29;20110;-79
2024/01/21 09:00:15;;;;;;;27.90;15.35;;;-2.10;79.70;;;;;;4008726;29;20062;-77
2024/01/21 09:02:18;;;;;;;28.90;16.63;;;-2.00;79.50;;;;;;4004576;29;20054;-78
2024/01/21 09:04:20;;;;;;;35.58;19.80;;;-1.90;79.90;;;;;;4009152;29;20057;-78
2024/01/21 09:06:21;;;;;;;44.85;22.08;;;-1.90;80.40;;;;;;4010606;29;20102;-78
2024/01/21 09:08:23;;;;;;;47.78;24.42;;;-1.90;80.60;;;;;;4012421;29;20061;-78
2024/01/21 09:10:25;;;;;;;45.53;22.88;;;-1.90;81.00;;;;;;4011153;29;20058;-77
2024/01/21 09:12:27;;;;;;;36.88;18.70;;;-1.80;81.10;;;;;;4010090;29;20114;-79
2024/01/21 09:14:28;;;;;;;31.52;17.65;;;-1.70;81.10;;;;;;4020505;29;20071;-79
2024/01/21 09:16:30;;;;;;;28.65;16.50;;;-1.70;81.50;;;;;;4010714;29;20083;-79
2024/01/21 09:18:34;;;;;;;28.10;16.83;;;-1.70;81.60;;;;;;4010012;29;20058;-79
2024/01/21 09:20:35;;;;;;;30.05;17.23;;;-1.70;81.30;;;;;;4008990;29;20072;-79
2024/01/21 09:22:36;;;;;;;31.70;16.85;;;-1.60;80.90;;;;;;4008107;29;20109;-80
2024/01/21 09:24:38;;;;;;;30.35;16.05;;;-1.70;81.10;;;;;;4008693;29;20122;-78
2024/01/21 09:26:41;;;;;;;27.27;15.05;;;-1.60;80.80;;;;;;4007763;29;20061;-80
2024/01/21 09:28:44;;;;;;;27.83;15.85;;;-1.60;80.20;;;;;;3991525;29;20060;-80
2024/01/21 09:30:46;;;;;;;26.20;15.45;;;-1.60;80.70;;;;;;4007448;29;20053;-79
2024/01/21 09:32:48;;;;;;;30.17;16.02;;;-1.50;80.70;;;;;;4008438;29;20057;-78
2024/01/21 09:34:51;;;;;;;27.75;15.80;;;-1.40;80.70;;;;;;4008678;29;20045;-81
2024/01/21 09:36:53;;;;;;;27.65;14.70;;;-1.30;80.00;;;;;;4008500;29;20054;-80
2024/01/21 09:38:55;;;;;;;26.63;15.45;;;-1.30;79.60;;;;;;4008481;29;20060;-79
2024/01/21 09:41:07;;;;;;;30.17;16.05;;;-1.30;79.50;;;;;;4009006;29;20526;-79
2024/01/21 09:43:11;;;;;;;25.75;15.15;;;-1.20;80.00;;;;;;4006674;29;20062;-78
2024/01/21 09:45:13;;;;;;;28.88;15.27;;;-1.30;80.90;;;;;;4006767;29;20050;-78
2024/01/21 09:47:15;;;;;;;28.30;15.82;;;-1.40;82.20;;;;;;4008120;29;20461;-77
2024/01/21 09:49:19;;;;;;;29.27;16.70;;;-1.30;82.70;;;;;;4008690;29;20054;-78
2024/01/21 09:51:23;;;;;;;26.67;16.42;;;-1.30;83.40;;;;;;4005906;29;20088;-79
2024/01/21 09:53:26;;;;;;;26.40;15.95;;;-1.20;83.30;;;;;;4008380;29;20553;-78
2024/01/21 09:55:28;;;;;;;27.33;15.15;;;-1.00;83.00;;;;;;4006577;29;20479;-78
2024/01/21 09:57:29;;;;;;;29.70;16.83;;;-1.00;82.50;;;;;;4002662;29;20050;-77
2024/01/21 09:59:32;;;;;;;29.73;16.95;;;-0.90;81.90;;;;;;3997815;29;20568;-77
2024/01/21 10:01:34;;;;;;;27.33;16.45;;;-0.90;81.70;;;;;;4012802;29;20065;-79
2024/01/21 10:03:36;;;;;;;27.98;16.92;;;-0.80;82.00;;;;;;4012622;29;20062;-78
2024/01/21 10:05:38;;;;;;;24.48;14.38;;;-0.70;80.90;;;;;;4010667;29;20057;-77
2024/01/21 10:07:42;;;;;;;24.55;14.57;;;-0.80;80.90;;;;;;4007009;29;20091;-79
2024/01/21 10:09:45;;;;;;;20.67;13.30;;;-0.70;80.30;;;;;;4006832;29;20058;-77
2024/01/21 10:11:50;;;;;;;24.15;13.65;;;-0.70;79.70;;;;;;4006401;29;20095;-77
2024/01/21 10:13:52;;;;;;;26.13;14.27;;;-0.60;79.80;;;;;;4007411;29;20053;-77
2024/01/21 10:15:53;;;;;;;24.58;15.10;;;-0.70;80.20;;;;;;4006225;29;20796;-77
2024/01/21 10:17:55;;;;;;;25.10;14.15;;;-0.60;80.70;;;;;;4006754;29;20053;-77
2024/01/21 10:19:59;;;;;;;25.52;14.70;;;-0.50;80.70;;;;;;4003453;29;20065;-77
2024/01/21 10:22:08;;;;;;;22.95;14.20;;;-0.40;80.40;;;;;;4002151;29;20544;-79
2024/01/21 10:24:12;;;;;;;26.65;15.30;;;-0.40;79.90;;;;;;4006261;29;20476;-78
2024/01/21 10:26:13;;;;;;;26.65;16.17;;;-0.30;80.00;;;;;;4011320;29;20054;-78
2024/01/21 10:28:17;;;;;;;29.45;18.27;;;-0.20;79.60;;;;;;4017530;29;20049;-79
2024/01/21 10:30:19;;;;;;;29.45;17.67;;;-0.10;80.10;;;;;;3990527;29;20062;-79
2024/01/21 10:32:21;;;;;;;32.50;19.42;;;-0.10;80.00;;;;;;4003170;29;20111;-78
2024/01/21 10:34:22;;;;;;;30.60;16.98;;;0.00;79.80;;;;;;4005041;29;20085;-80
2024/01/21 10:36:26;;;;;;;33.35;19.40;;;0.00;79.70;;;;;;4010711;29;20057;-79
2024/01/21 10:38:30;;;;;;;28.20;15.90;;;-0.10;80.20;;;;;;4017170;29;20054;-77
2024/01/21 10:40:33;;;;;;;29.33;15.68;;;-0.20;80.20;;;;;;3998807;29;20073;-80
2024/01/21 10:42:36;;;;;;;25.38;15.35;;;-0.30;80.20;;;;;;4011679;29;20082;-79
2024/01/21 10:44:39;;;;;;;26.83;16.08;;;-0.30;79.80;;;;;;4007195;29;20054;-79
2024/01/21 10:46:44;;;;;;;24.52;15.48;;;-0.30;80.40;;;;;;4005215;29;20184;-78
2024/01/21 10:48:46;;;;;;;24.85;14.48;;;-0.10;79.80;;;;;;4004993;29;20119;-77
2024/01/21 10:50:51;;;;;;;25.17;14.60;;;0.00;79.10;;;;;;4005350;29;20544;-78
2024/01/21 10:52:53;;;;;;;24.88;14.38;;;0.20;78.80;;;;;;4005056;29;20479;-78
2024/01/21 10:54:57;;;;;;;24.45;15.20;;;0.30;78.90;;;;;;4005097;29;20053;-76
2024/01/21 10:57:01;;;;;;;28.70;16.83;;;0.40;78.90;;;;;;3999216;29;20137;-78
2024/01/21 10:59:02;;;;;;;28.38;16.27;;;0.50;79.50;;;;;;4005001;29;20061;-79
2024/01/21 11:01:06;;;;;;;30.92;17.42;;;0.50;80.10;;;;;;4005013;29;20085;-79
2024/01/21 11:03:27;;;;;;;32.50;19.30;;;0.60;80.00;;;;;;4006160;29;20050;-79
2024/01/21 11:05:29;;;;;;;31.60;18.70;;;0.70;80.40;;;;;;4001636;29;20136;-79
2024/01/21 11:07:32;;;;;;;30.33;18.58;;;0.70;80.80;;;;;;4005994;29;20050;-81
2024/01/21 11:09:36;;;;;;;34.60;21.10;;;0.80;80.60;;;;;;4006597;29;20054;-79
2024/01/21 11:11:42;;;;;;;33.88;20.00;;;0.80;79.80;;;;;;4006100;29;20145;-79
2024/01/21 11:13:46;;;;;;;33.45;20.20;;;0.90;79.40;;;;;;4004286;29;20066;-79
2024/01/21 11:15:48;;;;;;;30.45;19.85;;;0.90;79.40;;;;;;4005219;29;20053;-78
2024/01/21 11:17:52;;;;;;;29.60;18.90;;;1.00;79.40;;;;;;4003711;29;20144;-79
2024/01/21 11:19:56;;;;;;;30.33;18.35;;;1.10;80.20;;;;;;4004634;29;20492;-76
2024/01/21 11:21:58;;;;;;;29.73;18.58;;;1.10;79.50;;;;;;4004842;29;20556;-77
2024/01/21 11:24:03;;;;;;;30.08;18.95;;;1.20;78.90;;;;;;4004650;29;20143;-77
2024/01/21 11:26:06;;;;;;;31.13;18.30;;;1.30;78.80;;;;;;4004240;29;20114;-80
2024/01/21 11:28:29;;;;;;;29.25;17.02;;;1.30;77.90;;;;;;4001361;29;20703;-80
2024/01/21 11:30:33;;;;;;;28.73;17.70;;;1.40;78.20;;;;;;4001086;29;20148;-77
2024/01/21 11:32:35;;;;;;;27.58;17.17;;;1.50;78.10;;;;;;4004641;29;20527;-79
2024/01/21 11:34:39;;;;;;;28.55;17.38;;;1.50;78.00;;;;;;4005912;29;20079;-80
2024/01/21 11:36:42;;;;;;;25.15;16.08;;;1.50;77.50;;;;;;4019235;29;20474;-79
2024/01/21 11:38:46;;;;;;;26.83;16.45;;;1.50;76.80;;;;;;4019975;29;20092;-79
2024/01/21 11:41:01;;;;;;;26.13;15.80;;;1.50;76.80;;;;;;4008982;29;20053;-80
2024/01/21 11:43:03;;;;;;;32.53;20.63;;;1.50;77.40;;;;;;4019280;29;20136;-77
2024/01/21 11:45:07;;;;;;;28.52;18.15;;;1.20;79.80;;;;;;4005882;29;20058;-79
2024/01/21 11:47:11;;;;;;;26.23;15.98;;;1.10;80.30;;;;;;4004998;29;20061;-79
2024/01/21 11:49:13;;;;;;;23.88;14.65;;;1.00;79.40;;;;;;4004526;29;20110;-77
2024/01/21 11:51:14;;;;;;;23.13;13.90;;;1.00;78.70;;;;;;4002095;29;20058;-79
2024/01/21 11:53:16;;;;;;;23.45;13.68;;;1.00;77.80;;;;;;4002903;29;20461;-81
2024/01/21 11:55:21;;;;;;;22.00;14.15;;;1.00;76.30;;;;;;4004811;29;20050;-78
2024/01/21 11:57:23;;;;;;;22.40;13.57;;;1.00;76.80;;;;;;4005163;29;20062;-79
2024/01/21 11:59:25;;;;;;;22.73;13.98;;;1.10;76.90;;;;;;4004170;29;20058;-79
2024/01/21 12:01:27;;;;;;;26.85;13.93;;;1.20;77.00;;;;;;4004059;29;20046;-77
2024/01/21 12:03:30;;;;;;;23.60;13.85;;;1.30;76.80;;;;;;4003499;29;20106;-79
2024/01/21 12:05:32;;;;;;;22.30;13.35;;;1.30;75.30;;;;;;4004490;29;20489;-78
2024/01/21 12:07:34;;;;;;;21.92;13.15;;;1.40;75.30;;;;;;4004242;29;20089;-77
2024/01/21 12:09:37;;;;;;;20.33;12.70;;;1.50;76.20;;;;;;4004907;29;20434;-78
2024/01/21 12:11:40;;;;;;;23.55;14.23;;;1.60;74.80;;;;;;4004566;29;20457;-77
2024/01/21 12:13:43;;;;;;;22.52;13.35;;;1.70;75.10;;;;;;4003958;29;20057;-81
2024/01/21 12:15:49;;;;;;;21.60;13.77;;;1.80;75.50;;;;;;3998145;29;20066;-80
2024/01/21 12:17:54;;;;;;;52.08;27.83;;;1.90;76.20;;;;;;4004654;29;20119;-78
2024/01/21 12:19:58;;;;;;;30.58;18.63;;;2.00;76.70;;;;;;4004476;29;20079;-80
2024/01/21 12:22:00;;;;;;;34.55;18.98;;;2.10;76.30;;;;;;4005305;29;20110;-81
2024/01/21 12:24:03;;;;;;;38.08;21.00;;;2.10;76.30;;;;;;4004650;29;20106;-79
2024/01/21 12:26:04;;;;;;;45.80;26.20;;;2.10;76.40;;;;;;4004240;29;20099;-78
2024/01/21 12:28:06;;;;;;;33.58;18.80;;;2.20;76.20;;;;;;4004923;29;20058;-76
2024/01/21 12:30:12;;;;;;;24.83;15.02;;;2.30;76.70;;;;;;4005806;29;20107;-77
2024/01/21 12:32:14;;;;;;;26.00;15.65;;;2.40;76.20;;;;;;4002786;29;20060;-78
2024/01/21 12:34:18;;;;;;;24.80;14.43;;;2.50;76.00;;;;;;4008546;29;20054;-80
2024/01/21 12:36:21;;;;;;;22.02;13.93;;;2.70;76.70;;;;;;4004655;29;20103;-79
2024/01/21 12:38:24;;;;;;;20.83;13.30;;;2.80;76.40;;;;;;4004882;29;20078;-79
2024/01/21 12:40:26;;;;;;;20.50;12.00;;;2.90;75.40;;;;;;4003537;29;20057;-79
2024/01/21 12:42:28;;;;;;;24.20;12.75;;;3.20;76.40;;;;;;4002246;29;20147;-79
2024/01/21 12:44:30;;;;;;;18.48;11.48;;;3.40;74.70;;;;;;4004126;29;20274;-77
2024/01/21 12:46:32;;;;;;;19.70;11.00;;;3.90;75.60;;;;;;4004738;29;20053;-75
2024/01/21 12:48:33;;;;;;;20.52;11.75;;;4.30;74.00;;;;;;4008211;29;20223;-78
2024/01/21 12:50:35;;;;;;;15.25;9.23;;;4.70;70.30;;;;;;4004676;29;20057;-78
2024/01/21 12:52:38;;;;;;;13.32;8.27;;;5.10;65.80;;;;;;4005617;29;20111;-79
2024/01/21 12:54:40;;;;;;;13.32;7.68;;;5.40;62.20;;;;;;4006143;29;20053;-78
2024/01/21 12:56:42;;;;;;;15.15;8.95;;;5.90;60.00;;;;;;4005851;29;20050;-81
2024/01/21 12:58:44;;;;;;;14.63;8.07;;;6.20;59.90;;;;;;4017038;29;20129;-78
2024/01/21 13:00:48;;;;;;;13.32;8.15;;;6.50;58.80;;;;;;4016675;29;20102;-77
2024/01/21 13:02:49;;;;;;;13.50;8.73;;;6.80;57.00;;;;;;4011482;29;20126;-79
2024/01/21 13:04:52;;;;;;;17.40;10.50;;;7.20;56.20;;;;;;4006018;29;20061;-77
2024/01/21 13:06:54;;;;;;;20.02;13.10;;;7.90;56.40;;;;;;4007250;29;20065;-78
2024/01/21 13:08:57;;;;;;;19.50;13.30;;;9.00;55.50;;;;;;4008076;29;20070;-78
2024/01/21 13:10:59;;;;;;;19.73;13.25;;;12.50;49.00;;;;;;4008348;29;20064;-79
2024/01/21 13:13:01;;;;;;;18.33;12.80;;;15.40;42.10;;;;;;4008371;29;20061;-76
2024/01/21 13:15:04;;;;;;;21.08;13.35;;;18.00;37.20;;;;;;4004919;29;20050;-77
2024/01/21 13:17:06;;;;;;;19.38;13.23;;;20.00;32.60;;;;;;4005818;29;20054;-76
2024/01/21 13:19:08;;;;;;;21.05;12.95;;;21.40;29.90;;;;;;4005287;29;20481;-78
2024/01/21 13:21:12;;;;;;;18.77;12.38;;;22.90;28.00;;;;;;4006242;29;20081;-77
2024/01/21 13:23:14;;;;;;;17.77;12.20;;;24.00;26.40;;;;;;4007061;29;20061;-77
2024/01/21 13:25:20;;;;;;;16.63;12.63;;;24.80;25.20;;;;;;4006904;29;20496;-79
2024/01/21 13:27:26;;;;;;;18.38;12.88;;;26.00;24.10;;;;;;4007630;29;20408;-79
2024/01/21 13:31:48;;;;;;;13.65;10.70;;;27.10;22.50;;;;;;4004944;29;20072;-79
2024/01/21 13:33:50;;;;;;;16.02;11.60;;;28.20;21.10;;;;;;4006564;29;20483;-78
2024/01/21 13:35:53;;;;;;;15.43;11.23;;;28.70;20.80;;;;;;4005547;29;20065;-80
2024/01/21 13:37:53;;;;;;;14.40;11.90;;;29.00;20.60;;;;;;4005347;29;20062;-79
2024/01/21 13:39:55;;;;;;;15.35;12.30;;;29.00;20.20;;;;;;4007372;29;20403;-79
2024/01/21 13:41:59;;;;;;;16.42;12.13;;;28.70;20.50;;;;;;4001402;29;20072;-79
2024/01/21 13:44:00;;;;;;;15.98;12.27;;;28.20;20.70;;;;;;4008530;29;20057;-78
2024/01/21 13:46:02;;;;;;;15.63;12.23;;;28.00;20.40;;;;;;4020217;29;20487;-79
2024/01/21 13:48:06;;;;;;;14.80;12.18;;;27.00;20.70;;;;;;4018723;29;20049;-77
2024/01/21 13:50:09;;;;;;;19.20;14.15;;;26.60;21.10;;;;;;4010439;29;20065;-78
2024/01/21 13:52:14;;;;;;;16.63;12.02;;;26.10;21.70;;;;;;4006271;29;20061;-79
2024/01/21 13:54:16;;;;;;;;;;;25.80;21.30;;;;;;4006775;29;20054;-77
2024/01/21 13:56:18;;;;;;;15.75;11.57;;;25.70;21.80;;;;;;4006442;29;20370;-80
2024/01/21 13:58:21;;;;;;;13.77;10.90;;;25.90;21.40;;;;;;4005404;29;20054;-77
2024/01/21 14:00:24;;;;;;;14.98;11.02;;;26.30;21.30;;;;;;4003160;29;20058;-79
2024/01/21 14:02:26;;;;;;;15.23;11.52;;;26.20;20.90;;;;;;4018306;29;20586;-78
2024/01/21 14:04:28;;;;;;;15.90;11.52;;;25.50;21.30;;;;;;4005554;29;20045;-79
2024/01/21 14:06:30;;;;;;;14.45;11.55;;;24.50;21.80;;;;;;4010156;29;20093;-78
2024/01/21 14:08:32;;;;;;;16.42;11.75;;;24.60;22.30;;;;;;4013733;29;20053;-78
2024/01/21 14:10:34;;;;;;;17.25;12.95;;;27.10;21.30;;;;;;4004016;29;20475;-78
2024/01/21 14:12:38;;;;;;;16.23;12.88;;;29.40;19.70;;;;;;4003790;29;20102;-78
2024/01/21 14:14:41;;;;;;;19.27;13.30;;;30.90;18.90;;;;;;4006605;29;20058;-79
2024/01/21 14:16:43;;;;;;;23.38;17.67;;;31.10;18.40;;;;;;4005322;29;20045;-79
2024/01/21 14:18:46;;;;;;;23.15;18.50;;;31.60;18.00;;;;;;4006581;29;20123;-80
2024/01/21 14:20:47;;;;;;;22.67;16.70;;;32.00;17.30;;;;;;4007056;29;20513;-79
2024/01/21 14:22:50;;;;;;;22.52;17.73;;;32.10;17.60;;;;;;4006088;29;20045;-77
2024/01/21 14:24:54;;;;;;;32.88;22.85;;;32.80;17.40;;;;;;4005785;29;20088;-79
2024/01/21 14:26:56;;;;;;;28.95;20.27;;;30.90;17.60;;;;;;4006988;29;20054;-80
2024/01/21 14:29:00;;;;;;;21.48;16.30;;;31.70;17.60;;;;;;4009336;29;20058;-78
2024/01/21 14:31:04;;;;;;;19.90;14.85;;;30.70;17.50;;;;;;4003075;29;20129;-79
2024/01/21 14:33:06;;;;;;;18.48;14.27;;;31.90;17.40;;;;;;4004969;29;20169;-78
2024/01/21 14:35:08;;;;;;;18.05;14.20;;;32.10;17.10;;;;;;4012176;29;20053;-76
2024/01/21 14:37:10;;;;;;;18.60;14.02;;;32.40;17.00;;;;;;4004508;29;20111;-80
2024/01/21 14:39:12;;;;;;;18.15;13.75;;;32.50;16.70;;;;;;4005152;29;20054;-78
2024/01/21 14:41:14;;;;;;;20.52;15.05;;;32.20;16.80;;;;;;4003524;29;20058;-79
2024/01/21 14:43:15;;;;;;;19.85;13.98;;;32.00;17.00;;;;;;4018552;29;20077;-79
2024/01/21 14:45:17;;;;;;;20.58;15.68;;;29.50;17.40;;;;;;4017906;29;20057;-80
2024/01/21 14:47:21;;;;;;;16.30;13.15;;;27.40;18.80;;;;;;4006673;29;20045;-82
2024/01/21 14:49:23;;;;;;;17.77;14.95;;;27.00;19.40;;;;;;4006075;29;20107;-83
2024/01/21 14:51:25;;;;;;;18.45;14.85;;;28.10;19.40;;;;;;4006111;29;20058;-83
2024/01/21 14:53:27;;;;;;;17.67;15.88;;;28.90;18.50;;;;;;4006740;29;20066;-81
2024/01/21 14:55:30;;;;;;;14.77;11.32;;;29.30;18.30;;;;;;4005440;29;20061;-81
2024/01/21 14:57:32;;;;;;;17.52;15.43;;;27.90;18.00;;;;;;3999664;29;20062;-81
2024/01/21 14:59:34;;;;;;;18.20;16.33;;;28.40;18.90;;;;;;4006150;29;20068;-78
2024/01/21 15:01:35;;;;;;;20.65;18.52;;;29.10;18.70;;;;;;4005032;29;20122;-78
2024/01/21 15:03:38;;;;;;;18.80;17.00;;;29.40;18.30;;;;;;4005523;29;20050;-81
2024/01/21 15:05:40;;;;;;;21.30;19.00;;;29.30;18.10;;;;;;4006095;29;20122;-83
2024/01/21 15:07:42;;;;;;;18.50;16.05;;;28.90;18.40;;;;;;4005177;29;20057;-79
2024/01/21 15:09:44;;;;;;;19.58;17.48;;;28.30;18.80;;;;;;4005167;29;20084;-77
2024/01/21 15:11:46;;;;;;;18.85;15.75;;;28.10;19.10;;;;;;4005831;29;20404;-79
2024/01/21 15:13:48;;;;;;;20.20;15.20;;;27.90;19.10;;;;;;4007306;29;20077;-88
2024/01/21 15:15:50;;;;;;;18.23;14.18;;;27.50;19.50;;;;;;4005872;29;20103;-78
2024/01/21 15:17:51;;;;;;;18.52;14.00;;;26.50;19.60;;;;;;4005455;29;20454;-79
2024/01/21 15:19:54;;;;;;;17.60;13.80;;;25.70;20.40;;;;;;4004310;29;20053;-77
2024/01/21 15:21:56;;;;;;;16.55;13.18;;;24.80;20.70;;;;;;4004195;29;20078;-75
2024/01/21 15:23:58;;;;;;;15.73;13.13;;;24.10;21.60;;;;;;4001489;29;21556;-80
2024/01/21 15:26:01;;;;;;;16.95;12.73;;;23.40;21.90;;;;;;4005838;29;20061;-76
2024/01/21 15:28:04;;;;;;;46.72;33.47;;;23.10;22.20;;;;;;4004940;29;20388;-79
2024/01/21 15:30:07;;;;;;;21.50;14.60;;;22.70;23.00;;;;;;4004372;29;20050;-78
2024/01/21 15:32:09;;;;;;;17.25;14.40;;;22.30;23.50;;;;;;4004432;29;20089;-77
2024/01/21 15:34:12;;;;;;;23.40;18.48;;;22.30;23.40;;;;;;4002488;29;20753;-79
2024/01/21 15:36:15;;;;;;;17.67;14.13;;;22.20;23.90;;;;;;4004913;29;20069;-79
2024/01/21 15:38:19;;;;;;;16.17;12.55;;;21.70;24.70;;;;;;4004773;29;20880;-81
2024/01/21 15:40:21;;;;;;;17.42;12.38;;;21.00;25.40;;;;;;4011230;29;20144;-79
2024/01/21 15:42:23;;;;;;;16.90;12.55;;;20.00;26.40;;;;;;4019950;29;20467;-79
2024/01/21 15:44:25;;;;;;;17.98;12.60;;;18.70;27.80;;;;;;4015476;29;20057;-79
2024/01/21 15:46:27;;;;;;;20.98;15.02;;;17.30;29.90;;;;;;4004162;29;20062;-81
2024/01/21 15:48:29;;;;;;;17.27;12.93;;;16.00;31.90;;;;;;4018123;29;20053;-79
2024/01/21 15:50:32;;;;;;;19.25;12.98;;;14.90;33.80;;;;;;4019490;29;20491;-78
2024/01/21 15:52:36;;;;;;;17.30;12.05;;;14.00;35.40;;;;;;4010398;29;20419;-79
2024/01/21 15:54:38;;;;;;;19.60;12.38;;;13.10;37.10;;;;;;4011321;29;20117;-81
2024/01/21 15:56:40;;;;;;;17.05;10.88;;;12.60;37.80;;;;;;4009735;29;20050;-81
2024/01/21 15:58:42;;;;;;;14.32;10.32;;;12.00;38.90;;;;;;4017557;29;20123;-82
2024/01/21 16:00:43;;;;;;;13.63;9.13;;;11.40;39.60;;;;;;4022758;29;20082;-81
2024/01/21 16:02:45;;;;;;;12.65;7.10;;;10.90;40.70;;;;;;4009704;29;20062;-82
2024/01/21 16:04:47;;;;;;;11.85;7.15;;;10.70;40.40;;;;;;4016588;29;20534;-78
2024/01/21 16:06:49;;;;;;;9.90;6.13;;;10.40;41.50;;;;;;4004708;29;20054;-82
2024/01/21 16:08:53;;;;;;;7.75;4.43;;;10.10;41.00;;;;;;4005535;29;20499;-81
2024/01/21 16:10:55;;;;;;;9.38;5.28;;;9.90;41.00;;;;;;4004883;29;20115;-78
2024/01/21 16:12:57;;;;;;;11.07;4.82;;;9.60;41.40;;;;;;4004213;29;20126;-80
2024/01/21 16:14:59;;;;;;;9.38;4.75;;;9.50;41.90;;;;;;4005269;29;20065;-82
2024/01/21 16:17:01;;;;;;;8.38;4.70;;;9.30;42.20;;;;;;4005595;29;20116;-79
2024/01/21 16:19:03;;;;;;;9.95;5.20;;;9.10;42.70;;;;;;4005176;29;20057;-79
2024/01/21 16:21:06;;;;;;;8.32;5.28;;;9.00;43.10;;;;;;4004922;29;20049;-79
2024/01/21 16:23:10;;;;;;;8.63;4.95;;;8.80;43.40;;;;;;4005049;29;20083;-79
2024/01/21 16:25:14;;;;;;;8.43;5.18;;;8.60;43.80;;;;;;4007176;29;20058;-79
2024/01/21 16:27:16;;;;;;;9.70;4.88;;;8.50;44.70;;;;;;4007598;29;20049;-79
2024/01/21 16:29:18;;;;;;;8.35;4.60;;;8.30;45.00;;;;;;4007130;29;20565;-79